Time;durP1;ratioP1;P1;durP2;ratioP2;P2;SDS_P1;SDS_P2;PMS_P1;PMS_P2;Temp;Humidity;BMP_temperature;BMP_pressure;BME280_temperature;BME280_humidity;BME280_pressure;Samples;Min_cycle;Max_cycle;Signal;HPM_P1;HPM_P2
2022/11/28 00:00:25;;;;;;;;;;;5.70;97.50;;;;;;5106497;27;20003;-78
2022/11/28 00:02:53;;;;;;;;;;;5.60;97.50;;;;;;5107418;28;20382;-79
2022/11/28 00:05:20;;;;;;;;;;;5.70;97.80;;;;;;5105191;28;19991;-79
2022/11/28 00:07:46;;;;;;;;;;;5.70;97.50;;;;;;5110881;27;21563;-79
2022/11/28 00:10:13;;;;;;;;;;;5.70;97.50;;;;;;5104328;27;19975;-78
2022/11/28 00:12:39;;;;;;;;;;;5.70;97.50;;;;;;5102847;28;19990;-80
2022/11/28 00:15:06;;;;;;;;;;;5.60;97.50;;;;;;5096983;27;20073;-78
2022/11/28 00:17:33;;;;;;;;;;;5.60;97.50;;;;;;5099362;27;19975;-79
2022/11/28 00:20:00;;;;;;;;;;;5.60;97.60;;;;;;5100361;28;20033;-79
2022/11/28 00:22:28;;;;;;;;;;;5.60;97.60;;;;;;5101650;28;20017;-79
2022/11/28 00:24:55;;;;;;;;;;;5.60;97.60;;;;;;5107498;27;19983;-78
2022/11/28 00:27:21;;;;;;;;;;;5.60;97.70;;;;;;5107032;28;19975;-79
2022/11/28 00:29:48;;;;;;;;;;;5.60;97.70;;;;;;5100081;28;20475;-78
2022/11/28 00:32:14;;;;;;;;;;;5.60;97.70;;;;;;5101349;28;20002;-78
2022/11/28 00:34:41;;;;;;;;;;;5.60;97.80;;;;;;5097575;28;19975;-79
2022/11/28 00:37:09;;;;;;;;;;;5.60;97.80;;;;;;5108347;27;19975;-79
2022/11/28 00:39:35;;;;;;;;;;;5.60;97.80;;;;;;5102197;27;19991;-79
2022/11/28 00:42:02;;;;;;;;;;;5.60;97.80;;;;;;5097365;27;19991;-78
2022/11/28 00:44:28;;;;;;;;;;;5.60;97.80;;;;;;5103487;28;19975;-79
2022/11/28 00:46:55;;;;;;;;;;;5.50;97.70;;;;;;5101943;27;20007;-79
2022/11/28 00:49:21;;;;;;;;;;;5.50;97.80;;;;;;5100713;28;19975;-79
2022/11/28 00:51:48;;;;;;;;;;;5.50;97.80;;;;;;5102832;28;20010;-78
2022/11/28 00:54:16;;;;;;;;;;;5.50;97.80;;;;;;5104123;28;20444;-80
2022/11/28 00:56:42;;;;;;;;;;;5.50;97.80;;;;;;5101359;28;19975;-79
2022/11/28 00:59:09;;;;;;;;;;;5.60;97.90;;;;;;5090867;27;19991;-79
2022/11/28 01:01:36;;;;;;;;;;;5.50;97.80;;;;;;5105893;27;19995;-79
2022/11/28 01:04:04;;;;;;;;;;;5.50;97.80;;;;;;5101308;27;19974;-78
2022/11/28 01:06:31;;;;;;;;;;;5.50;97.90;;;;;;5100038;27;19981;-78
2022/11/28 01:08:58;;;;;;;;;;;5.50;97.90;;;;;;5099242;27;20341;-78
2022/11/28 01:11:26;;;;;;;;;;;5.50;97.90;;;;;;5098423;27;19983;-79
2022/11/28 01:13:53;;;;;;;;;;;5.50;97.90;;;;;;5096086;27;19975;-79
2022/11/28 01:16:20;;;;;;;;;;;5.50;97.90;;;;;;5103901;27;19987;-78
2022/11/28 01:18:46;;;;;;;;;;;5.50;98.00;;;;;;5102625;28;20696;-78
2022/11/28 01:21:13;;;;;;;;;;;5.50;97.70;;;;;;5100367;28;20014;-79
2022/11/28 01:23:40;;;;;;;;;;;5.40;97.90;;;;;;5101119;28;20711;-79
2022/11/28 01:26:07;;;;;;;;;;;5.40;97.90;;;;;;5096340;28;20740;-79
2022/11/28 01:28:35;;;;;;;;;;;5.40;97.90;;;;;;5100236;27;19982;-78
2022/11/28 01:31:03;;;;;;;;;;;5.40;97.90;;;;;;5103260;28;19991;-79
2022/11/28 01:33:29;;;;;;;;;;;5.40;97.70;;;;;;5096182;28;19995;-78
2022/11/28 01:35:56;;;;;;;;;;;5.40;98.00;;;;;;5098586;28;19982;-78
2022/11/28 01:38:23;;;;;;;;;;;5.40;98.00;;;;;;5103475;28;19975;-79
2022/11/28 01:40:50;;;;;;;;;;;5.40;98.00;;;;;;5104766;28;20290;-78
2022/11/28 01:43:16;;;;;;;;;;;5.40;97.80;;;;;;5099600;28;19998;-78
2022/11/28 01:45:44;;;;;;;;;;;5.40;98.00;;;;;;5102369;28;20002;-79
2022/11/28 01:48:12;;;;;;;;;;;5.40;98.00;;;;;;5103635;28;19975;-78
2022/11/28 01:50:39;;;;;;;;;;;5.40;98.00;;;;;;5096300;28;20033;-78
2022/11/28 01:53:08;;;;;;;;;;;5.40;97.80;;;;;;5100398;27;19995;-79
2022/11/28 01:55:37;;;;;;;;;;;5.40;98.00;;;;;;5100855;27;19982;-78
2022/11/28 01:58:04;;;;;;;;;;;5.40;98.00;;;;;;5094363;28;20721;-78
2022/11/28 02:00:30;;;;;;;;;;;5.10;98.00;;;;;;5098662;28;20010;-79
2022/11/28 02:03:00;;;;;;;;;;;5.40;97.80;;;;;;5098953;28;20088;-79
2022/11/28 02:08:32;;;;;;;;;;;5.30;98.00;;;;;;5091462;28;19969;-78
2022/11/28 02:11:08;;;;;;;;;;;5.30;98.00;;;;;;5101594;28;19979;-78
2022/11/28 02:13:39;;;;;;;;;;;5.30;98.10;;;;;;5099233;28;19974;-79
2022/11/28 02:16:15;;;;;;;;;;;5.30;98.10;;;;;;5100776;28;19995;-78
2022/11/28 02:18:49;;;;;;;;;;;5.30;98.10;;;;;;5097401;28;19974;-79
2022/11/28 02:21:33;;;;;;;;;;;5.30;98.10;;;;;;5100257;28;20006;-79
2022/11/28 02:24:11;;;;;;;;;;;5.30;98.10;;;;;;5096907;28;19975;-79
2022/11/28 02:26:50;;;;;;;;;;;5.30;98.10;;;;;;5109006;28;19978;-78
2022/11/28 02:29:31;;;;;;;;;;;5.30;98.10;;;;;;5097291;28;19983;-77
2022/11/28 02:32:15;;;;;;;;;;;5.30;98.10;;;;;;5095691;28;19999;-78
2022/11/28 02:34:45;;;;;;;;;;;5.30;98.10;;;;;;5095875;28;19975;-79
2022/11/28 02:37:14;;;;;;;;;;;5.30;98.10;;;;;;5098723;28;19975;-79
2022/11/28 02:39:45;;;;;;;;;;;5.30;98.10;;;;;;5098214;28;19991;-78
2022/11/28 02:42:15;;;;;;;;;;;7.80;98.90;;;;;;5104604;28;19990;-78
2022/11/28 02:44:44;;;;;;;;;;;5.30;98.10;;;;;;5099367;28;19979;-78
2022/11/28 02:47:14;;;;;;;;;;;5.30;98.10;;;;;;5107322;28;19986;-79
2022/11/28 02:49:45;;;;;;;;;;;5.30;98.10;;;;;;5098717;28;20002;-78
2022/11/28 02:52:13;;;;;;;;;;;5.30;98.10;;;;;;5107162;28;20369;-78
2022/11/28 02:54:40;;;;;;;;;;;5.30;98.10;;;;;;5101673;28;19982;-78
2022/11/28 02:57:08;;;;;;;;;;;5.30;98.10;;;;;;5096085;28;19979;-79
2022/11/28 02:59:46;;;;;;;;;;;5.20;98.10;;;;;;5096903;28;19982;-78
2022/11/28 03:02:14;;;;;;;;;;;5.20;98.10;;;;;;5105946;28;20046;-79
2022/11/28 03:04:47;;;;;;;;;;;5.20;98.10;;;;;;5099585;28;19978;-78
2022/11/28 03:07:21;;;;;;;;;;;5.20;98.10;;;;;;5100182;28;20679;-78
2022/11/28 03:09:54;;;;;;;;;;;6.80;98.60;;;;;;5102075;28;20465;-78
2022/11/28 03:12:25;;;;;;;;;;;5.20;97.90;;;;;;5093915;28;19997;-78
2022/11/28 03:14:54;;;;;;;;;;;5.20;98.10;;;;;;5099158;28;20438;-79
2022/11/28 03:17:24;;;;;;;;;;;5.20;98.10;;;;;;5106779;28;20005;-79
2022/11/28 03:19:57;;;;;;;;;;;5.20;98.10;;;;;;5102214;28;19999;-79
2022/11/28 03:22:27;;;;;;;;;;;5.20;98.20;;;;;;5098974;28;19991;-78
2022/11/28 03:24:57;;;;;;;;;;;5.10;98.20;;;;;;5094648;28;20582;-78
2022/11/28 03:27:25;;;;;;;;;;;5.10;98.20;;;;;;5102608;28;19979;-78
2022/11/28 03:29:53;;;;;;;;;;;5.20;98.20;;;;;;5102134;28;20003;-79
2022/11/28 03:32:23;;;;;;;;;;;5.10;97.90;;;;;;5083931;28;20637;-79
2022/11/28 03:34:52;;;;;;;;;;;5.20;98.20;;;;;;5081746;28;20390;-79
2022/11/28 03:37:22;;;;;;;;;;;5.10;98.20;;;;;;5082482;28;19971;-79
2022/11/28 03:39:51;;;;;;;;;;;5.10;98.20;;;;;;5076884;28;19979;-79
2022/11/28 03:42:20;;;;;;;;;;;5.10;97.90;;;;;;5091792;28;20002;-78
2022/11/28 03:44:49;;;;;;;;;;;5.10;98.20;;;;;;5086750;28;19975;-79
2022/11/28 03:47:16;;;;;;;;;;;5.10;98.20;;;;;;5101781;28;19998;-78
2022/11/28 03:49:45;;;;;;;;;;;5.10;98.20;;;;;;5101319;28;20441;-79
2022/11/28 03:52:14;;;;;;;;;;;5.10;98.00;;;;;;5100664;27;20462;-78
2022/11/28 03:54:46;;;;;;;;;;;5.10;98.20;;;;;;5102780;28;19974;-79
2022/11/28 03:57:17;;;;;;;;;;;5.10;98.30;;;;;;5097309;28;19979;-78
2022/11/28 03:59:46;;;;;;;;;;;5.10;98.20;;;;;;5103778;28;20126;-79
2022/11/28 04:02:15;;;;;;;;;;;5.10;98.00;;;;;;5099056;28;19995;-78
2022/11/28 04:04:47;;;;;;;;;;;5.00;98.20;;;;;;5098313;27;19976;-79
2022/11/28 04:07:18;;;;;;;;;;;5.00;98.30;;;;;;5102915;28;21084;-78
2022/11/28 04:09:48;;;;;;;;;;;5.00;98.20;;;;;;5102203;28;19975;-79
2022/11/28 04:12:19;;;;;;;;;;;5.00;98.00;;;;;;5104751;28;19991;-79
2022/11/28 04:14:47;;;;;;;;;;;5.00;98.30;;;;;;5098093;28;19979;-78
2022/11/28 04:17:17;;;;;;;;;;;5.00;98.30;;;;;;5103403;28;20033;-79
2022/11/28 04:19:47;;;;;;;;;;;5.00;98.30;;;;;;5098656;28;20066;-79
2022/11/28 04:22:16;;;;;;;;;;;5.00;98.00;;;;;;5101117;28;20002;-79
2022/11/28 04:24:45;;;;;;;;;;;5.00;98.30;;;;;;5094506;28;19981;-78
2022/11/28 04:27:15;;;;;;;;;;;5.00;98.30;;;;;;5107796;28;19982;-78
2022/11/28 04:29:44;;;;;;;;;;;5.00;98.20;;;;;;5096914;28;20902;-79
2022/11/28 04:32:12;;;;;;;;;;;5.00;98.30;;;;;;5103058;28;20017;-78
2022/11/28 04:34:41;;;;;;;;;;;5.00;98.20;;;;;;5100984;28;19974;-78
2022/11/28 04:37:08;;;;;;;;;;;4.90;98.20;;;;;;5103229;28;19982;-78
2022/11/28 04:39:36;;;;;;;;;;;4.90;98.30;;;;;;5109339;28;19986;-78
2022/11/28 04:42:05;;;;;;;;;;;4.90;98.00;;;;;;5102523;28;19994;-79
2022/11/28 04:44:36;;;;;;;;;;;4.90;98.20;;;;;;5105259;28;20322;-79
2022/11/28 04:47:03;;;;;;;;;;;4.90;98.20;;;;;;5105709;27;20033;-78
2022/11/28 04:49:30;;;;;;;;;;;4.90;98.20;;;;;;5103647;28;19982;-78
2022/11/28 04:52:00;;;;;;;;;;;4.90;98.00;;;;;;5101999;28;20022;-79
2022/11/28 04:54:29;;;;;;;;;;;4.90;98.20;;;;;;5104313;28;19997;-78
2022/11/28 04:56:57;;;;;;;;;;;4.90;98.20;;;;;;5100573;28;19986;-79
2022/11/28 04:59:25;;;;;;;;;;;4.90;98.20;;;;;;5098325;28;19990;-79
2022/11/28 05:01:53;;;;;;;;;;;4.90;98.20;;;;;;5099401;28;20002;-79
2022/11/28 05:04:20;;;;;;;;;;;4.90;98.20;;;;;;5098663;28;19975;-80
2022/11/28 05:06:47;;;;;;;;;;;4.90;98.20;;;;;;5103591;28;19982;-79
2022/11/28 05:09:13;;;;;;;;;;;4.80;98.20;;;;;;5103456;28;20559;-79
2022/11/28 05:11:40;;;;;;;;;;;4.90;98.20;;;;;;5103318;28;19994;-79
2022/11/28 05:14:07;;;;;;;;;;;4.80;98.20;;;;;;5101563;28;20362;-79
2022/11/28 05:16:34;;;;;;;;;;;4.90;98.30;;;;;;5099018;28;19998;-78
2022/11/28 05:19:02;;;;;;;;;;;4.90;98.30;;;;;;5102326;28;20529;-79
2022/11/28 05:21:29;;;;;;;;;;;4.80;98.20;;;;;;5100116;28;20361;-79
2022/11/28 05:23:55;;;;;;;;;;;4.80;98.20;;;;;;5101013;28;19978;-79
2022/11/28 05:26:22;;;;;;;;;;;4.80;98.20;;;;;;5103663;28;19974;-79
2022/11/28 05:28:50;;;;;;;;;;;4.80;98.30;;;;;;5093389;28;19989;-78
2022/11/28 05:31:17;;;;;;;;;;;4.80;98.00;;;;;;5073346;28;20754;-78
2022/11/28 05:33:43;;;;;;;;;;;4.80;98.20;;;;;;5075785;28;20434;-78
2022/11/28 05:36:12;;;;;;;;;;;4.80;98.20;;;;;;5079530;28;19983;-78
2022/11/28 05:38:39;;;;;;;;;;;4.80;98.20;;;;;;5075880;28;19975;-79
2022/11/28 05:41:06;;;;;;;;;;;4.80;98.30;;;;;;5078217;28;20001;-79
2022/11/28 05:43:32;;;;;;;;;;;4.80;98.20;;;;;;5081475;28;20382;-78
2022/11/28 05:45:59;;;;;;;;;;;4.70;98.20;;;;;;5078461;28;19992;-78
2022/11/28 05:48:25;;;;;;;;;;;4.70;98.20;;;;;;5074959;28;19975;-78
2022/11/28 05:50:52;;;;;;;;;;;4.80;98.20;;;;;;5075844;28;19990;-78
2022/11/28 05:53:20;;;;;;;;;;;4.70;98.20;;;;;;5077060;28;20006;-78
2022/11/28 05:55:47;;;;;;;;;;;4.80;98.20;;;;;;5076728;28;19975;-78
2022/11/28 05:58:14;;;;;;;;;;;4.70;98.20;;;;;;5081836;28;19991;-78
2022/11/28 06:00:40;;;;;;;;;;;4.70;98.20;;;;;;5075364;28;19994;-78
2022/11/28 06:03:07;;;;;;;;;;;4.70;98.00;;;;;;5072122;28;19998;-78
2022/11/28 06:05:34;;;;;;;;;;;4.70;98.30;;;;;;5075318;28;20346;-78
2022/11/28 06:08:00;;;;;;;;;;;5.30;98.40;;;;;;5078068;28;20006;-78
2022/11/28 06:10:28;;;;;;;;;;;4.70;98.30;;;;;;5076103;28;19982;-78
2022/11/28 06:12:55;;;;;;;;;;;4.70;98.30;;;;;;5072857;28;19987;-77
2022/11/28 06:15:21;;;;;;;;;;;4.70;98.20;;;;;;5080424;28;19975;-78
2022/11/28 06:17:48;;;;;;;;;;;4.70;98.20;;;;;;5060062;28;19933;-78
2022/11/28 06:20:14;;;;;;;;;;;4.70;98.20;;;;;;5065601;28;20306;-79
2022/11/28 06:22:41;;;;;;;;;;;4.70;97.90;;;;;;5062995;28;19955;-78
2022/11/28 06:25:07;;;;;;;;;;;4.70;98.20;;;;;;5074045;28;19928;-78
2022/11/28 06:27:35;;;;;;;;;;;4.70;98.20;;;;;;5063181;28;19950;-78
2022/11/28 06:30:02;;;;;;;;;;;4.70;98.20;;;;;;5087113;28;19925;-78
2022/11/28 06:32:28;;;;;;;;;;;4.70;98.00;;;;;;5101208;28;19943;-78
2022/11/28 06:34:55;;;;;;;;;;;4.70;98.20;;;;;;5105165;28;19927;-78
2022/11/28 06:37:22;;;;;;;;;;;5.70;98.50;;;;;;5105426;28;20441;-78
2022/11/28 06:39:50;;;;;;;;;;;4.70;98.20;;;;;;5108972;28;20239;-77
2022/11/28 06:42:16;;;;;;;;;;;4.70;98.00;;;;;;5102533;28;20005;-78
2022/11/28 06:44:44;;;;;;;;;;;4.70;98.30;;;;;;5104992;28;19975;-78
2022/11/28 06:47:11;;;;;;;;;;;4.70;98.20;;;;;;5106839;28;20615;-78
2022/11/28 06:49:37;;;;;;;;;;;4.70;98.20;;;;;;5113257;27;20002;-79
2022/11/28 06:52:04;;;;;;;;;;;4.70;98.00;;;;;;5114060;27;19990;-78
2022/11/28 06:54:31;;;;;;;;;;;4.70;98.20;;;;;;5110334;28;19975;-78
2022/11/28 06:56:57;;;;;;;;;;;4.70;98.20;;;;;;5108599;27;20156;-78
2022/11/28 06:59:24;;;;;;;;;;;4.70;98.20;;;;;;5107887;27;19986;-78
2022/11/28 07:01:52;;;;;;;;;;;4.70;97.90;;;;;;5105061;27;20001;-78
2022/11/28 07:04:18;;;;;;;;;;;4.60;98.20;;;;;;5102595;27;19986;-78
2022/11/28 07:06:45;;;;;;;;;;;4.60;98.20;;;;;;5110083;28;20501;-78
2022/11/28 07:09:12;;;;;;;;;;;4.60;98.20;;;;;;5098780;28;19975;-77
2022/11/28 07:11:40;;;;;;;;;;;4.60;97.90;;;;;;5103830;28;20002;-77
2022/11/28 07:14:07;;;;;;;;;;;4.70;98.20;;;;;;5109577;28;19975;-77
2022/11/28 07:16:33;;;;;;;;;;;4.70;98.20;;;;;;5086788;28;20486;-78
2022/11/28 07:19:01;;;;;;;;;;;4.70;98.20;;;;;;5079624;28;19979;-77
2022/11/28 07:21:28;;;;;;;;;;;4.60;98.00;;;;;;5094021;28;20006;-78
2022/11/28 07:23:55;;;;;;;;;;;4.60;98.60;;;;;;5084860;28;19975;-78
2022/11/28 07:26:22;;;;;;;;;;;4.60;98.30;;;;;;5085608;28;19976;-77
2022/11/28 07:28:50;;;;;;;;;;;4.70;98.30;;;;;;5091175;28;19990;-78
2022/11/28 07:31:17;;;;;;;;;;;4.60;98.00;;;;;;5087532;28;20083;-78
2022/11/28 07:33:45;;;;;;;;;;;4.60;98.30;;;;;;5083873;28;19976;-78
2022/11/28 07:36:14;;;;;;;;;;;4.60;98.20;;;;;;5089589;28;19975;-77
2022/11/28 07:38:41;;;;;;;;;;;6.80;98.90;;;;;;5088501;28;19975;-78
2022/11/28 07:41:09;;;;;;;;;;;4.60;98.30;;;;;;5077335;28;19987;-79
2022/11/28 07:43:36;;;;;;;;;;;4.60;98.00;;;;;;5084734;28;19972;-78
2022/11/28 07:46:04;;;;;;;;;;;4.60;98.30;;;;;;5097605;27;20021;-77
2022/11/28 07:48:30;;;;;;;;;;;4.60;98.30;;;;;;5101889;27;19982;-78
2022/11/28 07:50:57;;;;;;;;;;;4.60;98.30;;;;;;5108281;27;20851;-78
2022/11/28 07:53:25;;;;;;;;;;;4.60;98.00;;;;;;5105782;27;21295;-77
2022/11/28 07:55:51;;;;;;;;;;;4.60;98.30;;;;;;5113044;27;20093;-78
2022/11/28 07:58:20;;;;;;;;;;;4.60;98.30;;;;;;5107524;28;19974;-79
2022/11/28 08:00:46;;;;;;;;;;;4.60;98.30;;;;;;5092174;28;20088;-76
2022/11/28 08:03:13;;;;;;;;;;;4.60;98.00;;;;;;5078734;28;19992;-78
2022/11/28 08:05:41;;;;;;;;;;;4.60;98.30;;;;;;5080418;28;20588;-78
2022/11/28 08:08:07;;;;;;;;;;;4.60;98.30;;;;;;5078021;28;19982;-78
2022/11/28 08:10:35;;;;;;;;;;;4.60;98.30;;;;;;5089342;28;20481;-78
2022/11/28 08:13:02;;;;;;;;;;;4.60;98.00;;;;;;5071868;28;19995;-78
2022/11/28 08:15:30;;;;;;;;;;;4.60;98.30;;;;;;5084152;28;19995;-78
2022/11/28 08:17:57;;;;;;;;;;;4.70;98.30;;;;;;5087712;28;20450;-77
2022/11/28 08:20:23;;;;;;;;;;;4.70;98.30;;;;;;5080437;28;19939;-78
2022/11/28 08:22:50;;;;;;;;;;;4.60;98.30;;;;;;5084986;28;19928;-78
2022/11/28 08:25:17;;;;;;;;;;;4.60;98.30;;;;;;5083927;28;20295;-78
2022/11/28 08:27:45;;;;;;;;;;;4.60;98.30;;;;;;5077660;28;19928;-78
2022/11/28 08:30:11;;;;;;;;;;;4.70;98.40;;;;;;5083320;28;19928;-78
2022/11/28 08:32:38;;;;;;;;;;;4.70;98.10;;;;;;5081545;28;20434;-78
2022/11/28 08:35:05;;;;;;;;;;;4.60;98.30;;;;;;5085288;28;20325;-77
2022/11/28 08:37:31;;;;;;;;;;;4.70;98.30;;;;;;5076232;28;20406;-78
2022/11/28 08:39:58;;;;;;;;;;;4.70;98.30;;;;;;5082332;28;19943;-78
2022/11/28 08:42:24;;;;;;;;;;;4.70;98.10;;;;;;5072892;28;20392;-77
2022/11/28 08:44:52;;;;;;;;;;;4.70;98.30;;;;;;5081151;28;19932;-78
2022/11/28 08:47:19;;;;;;;;;;;4.70;98.30;;;;;;5082424;28;19943;-78
2022/11/28 08:49:45;;;;;;;;;;;4.70;98.30;;;;;;5081829;28;20587;-78
2022/11/28 08:52:12;;;;;;;;;;;4.70;98.00;;;;;;5075263;28;19939;-78
2022/11/28 08:54:40;;;;;;;;;;;4.70;98.30;;;;;;5083881;28;21263;-78
2022/11/28 08:57:06;;;;;;;;;;;4.70;98.30;;;;;;5087945;28;19928;-78
2022/11/28 08:59:33;;;;;;;;;;;4.70;98.30;;;;;;5087183;28;19928;-78
2022/11/28 09:02:01;;;;;;;;;;;4.80;98.00;;;;;;5078836;28;19932;-77
2022/11/28 09:04:28;;;;;;;;;;;4.80;98.30;;;;;;5079478;28;19932;-78
2022/11/28 09:06:54;;;;;;;;;;;4.70;98.20;;;;;;5079366;28;19927;-78
2022/11/28 09:09:21;;;;;;;;;;;4.70;98.30;;;;;;5075996;28;19928;-78
2022/11/28 09:11:48;;;;;;;;;;;4.80;98.00;;;;;;5091564;28;19972;-77
2022/11/28 09:14:14;;;;;;;;;;;4.70;98.20;;;;;;5075374;28;19928;-78
2022/11/28 09:16:41;;;;;;;;;;;4.80;98.20;;;;;;5079455;28;19935;-78
2022/11/28 09:19:09;;;;;;;;;;;4.80;98.20;;;;;;5073839;28;19932;-77
2022/11/28 09:21:36;;;;;;;;;;;4.80;97.90;;;;;;5074576;28;19929;-78
2022/11/28 09:24:03;;;;;;;;;;;4.80;98.20;;;;;;5072324;28;19928;-77
2022/11/28 09:26:29;;;;;;;;;;;4.80;98.20;;;;;;5082391;28;19928;-78
2022/11/28 09:28:56;;;;;;;;;;;4.80;98.20;;;;;;5078414;28;19932;-77
2022/11/28 09:31:23;;;;;;;;;;;4.90;97.90;;;;;;5077894;28;19939;-78
2022/11/28 09:33:49;;;;;;;;;;;4.90;98.10;;;;;;5077183;28;20292;-78
2022/11/28 09:36:18;;;;;;;;;;;4.90;98.10;;;;;;5080881;28;19935;-78
2022/11/28 09:38:45;;;;;;;;;;;4.90;98.10;;;;;;5083588;28;19947;-78
2022/11/28 09:41:38;;;;;;;;;;;4.90;97.80;;;;;;5077193;28;19938;-78
2022/11/28 09:44:08;;;;;;;;;;;4.90;98.00;;;;;;5020317;28;19929;-78
2022/11/28 09:46:37;;;;;;;;;;;5.00;98.30;;;;;;5079456;28;19928;-78
2022/11/28 09:49:07;;;;;;;;;;;4.90;98.00;;;;;;5083245;28;19951;-78
2022/11/28 09:51:36;;;;;;;;;;;5.00;97.70;;;;;;5072026;28;19981;-78
2022/11/28 09:54:07;;;;;;;;;;;4.90;98.00;;;;;;5074671;28;19928;-78
2022/11/28 09:56:35;;;;;;;;;;;5.00;97.90;;;;;;5074354;28;19928;-78
2022/11/28 09:59:02;;;;;;;;;;;6.10;98.30;;;;;;5079059;28;19975;-78
2022/11/28 10:01:33;;;;;;;;;;;5.00;97.60;;;;;;5075068;28;20483;-78
2022/11/28 10:04:02;;;;;;;;;;;5.00;97.80;;;;;;5084684;28;19931;-78
2022/11/28 10:06:32;;;;;;;;;;;5.00;97.80;;;;;;5082500;28;19935;-77
2022/11/28 10:09:08;;;;;;;;;;;5.10;97.80;;;;;;5083142;28;19928;-77
2022/11/28 10:11:40;;;;;;;;;;;5.10;97.50;;;;;;5084048;28;19928;-78
2022/11/28 10:14:16;;;;;;;;;;;7.10;98.40;;;;;;5082293;28;19929;-78
2022/11/28 10:16:49;;;;;;;;;;;5.10;97.80;;;;;;5074450;28;19982;-79
2022/11/28 10:19:18;;;;;;;;;;;5.10;97.70;;;;;;5079452;28;20295;-78
2022/11/28 10:21:46;;;;;;;;;;;5.10;97.40;;;;;;5079208;28;20358;-78
2022/11/28 10:24:15;;;;;;;;;;;5.10;97.70;;;;;;5075269;28;19928;-79
2022/11/28 10:26:45;;;;;;;;;;;5.10;97.70;;;;;;5083323;28;19939;-79
2022/11/28 10:29:24;;;;;;;;;;;5.10;97.70;;;;;;5076824;28;19928;-78
2022/11/28 10:31:53;;;;;;;;;;;5.20;97.40;;;;;;5081083;28;19935;-79
2022/11/28 10:34:23;;;;;;;;;;;5.20;97.70;;;;;;5084098;28;19928;-78
2022/11/28 10:36:52;;;;;;;;;;;5.20;97.60;;;;;;5080404;28;19932;-78
2022/11/28 10:39:20;;;;;;;;;;;5.20;97.60;;;;;;5087519;28;20723;-77
2022/11/28 10:42:10;;;;;;;;;;;5.20;97.30;;;;;;5084552;28;19928;-78
2022/11/28 10:44:39;;;;;;;;;;;5.20;97.60;;;;;;5081339;28;20532;-77
2022/11/28 10:47:07;;;;;;;;;;;5.20;97.60;;;;;;5081067;28;19929;-79
2022/11/28 10:49:50;;;;;;;;;;;5.20;97.50;;;;;;5084355;28;19928;-78
2022/11/28 10:52:20;;;;;;;;;;;5.30;97.50;;;;;;5083323;28;19978;-78
2022/11/28 10:55:05;;;;;;;;;;;5.30;97.50;;;;;;5078861;28;19935;-78
2022/11/28 10:57:36;;;;;;;;;;;5.30;97.50;;;;;;5085405;28;19928;-78
2022/11/28 11:00:09;;;;;;;;;;;5.30;97.50;;;;;;5081297;28;19924;-78
2022/11/28 11:02:37;;;;;;;;;;;5.30;97.50;;;;;;5101433;28;19939;-78
2022/11/28 11:05:04;;;;;;;;;;;5.30;97.50;;;;;;5099195;28;19927;-78
2022/11/28 11:07:31;;;;;;;;;;;5.40;97.60;;;;;;5104757;28;19928;-78
2022/11/28 11:10:02;;;;;;;;;;;5.40;97.60;;;;;;5100452;28;20413;-78
2022/11/28 11:12:31;;;;;;;;;;;5.40;97.30;;;;;;5108320;27;19976;-78
2022/11/28 11:14:57;;;;;;;;;;;5.40;97.60;;;;;;5105402;28;20008;-78
2022/11/28 11:17:25;;;;;;;;;;;5.40;97.50;;;;;;5085531;28;20308;-78
2022/11/28 11:19:52;;;;;;;;;;;5.40;97.20;;;;;;5087443;28;19976;-77
2022/11/28 11:22:20;;;;;;;;;;;5.50;97.30;;;;;;5085243;28;19935;-77
2022/11/28 11:25:03;;;;;;;;;;;5.50;97.50;;;;;;5084958;28;19967;-78
2022/11/28 11:27:31;;;;;;;;;;;5.50;97.50;;;;;;5078998;28;20479;-77
2022/11/28 11:29:58;;;;;;;;;;;5.50;97.50;;;;;;5075515;28;19940;-77
2022/11/28 11:32:27;;;;;;;;;;;5.50;97.50;;;;;;5062980;28;19958;-78
2022/11/28 11:34:54;;;;;;;;;;;5.60;97.50;;;;;;5070316;28;19932;-78
2022/11/28 11:37:31;;;;;;;;;;;5.60;97.50;;;;;;5072490;28;19929;-79
2022/11/28 11:39:58;;;;;;;;;;;5.60;97.50;;;;;;5068740;28;20065;-78
2022/11/28 11:42:26;;;;;;;;;;;5.60;97.50;;;;;;5068834;28;19994;-77
2022/11/28 11:44:54;;;;;;;;;;;5.60;97.50;;;;;;5074855;28;19929;-79
2022/11/28 11:47:38;;;;;;;;;;;5.60;97.50;;;;;;5079606;28;19939;-77
2022/11/28 11:50:06;;;;;;;;;;;5.60;97.50;;;;;;5075013;28;19932;-79
2022/11/28 11:52:32;;;;;;;;;;;5.70;97.50;;;;;;5075167;28;19928;-78
2022/11/28 11:55:02;;;;;;;;;;;5.70;97.50;;;;;;5069747;28;19928;-78
2022/11/28 11:57:43;;;;;;;;;;;5.70;97.50;;;;;;5077751;28;19932;-78
2022/11/28 12:00:15;;;;;;;;;;;5.70;97.90;;;;;;5077543;28;20187;-79
2022/11/28 12:02:43;;;;;;;;;;;5.80;97.30;;;;;;5078569;28;19935;-78
2022/11/28 12:05:11;;;;;;;;;;;5.80;97.60;;;;;;5078754;28;20001;-78
2022/11/28 12:07:39;;;;;;;;;;;5.80;97.60;;;;;;5082931;28;20820;-78
2022/11/28 12:10:07;;;;;;;;;;;5.80;97.60;;;;;;5076600;28;19940;-77
2022/11/28 12:12:35;;;;;;;;;;;5.80;97.20;;;;;;5075872;28;19928;-78
2022/11/28 12:15:03;;;;;;;;;;;5.90;97.50;;;;;;5084529;28;19935;-78
2022/11/28 12:17:40;;;;;;;;;;;5.90;97.50;;;;;;5079589;28;20311;-78
2022/11/28 12:20:23;;;;;;;;;;;5.90;97.50;;;;;;5077118;28;19928;-78
2022/11/28 12:22:53;;;;;;;;;;;5.90;97.20;;;;;;5078190;28;19954;-77
2022/11/28 12:25:23;;;;;;;;;;;5.90;97.40;;;;;;5073088;28;19928;-78
2022/11/28 12:27:55;;;;;;;;;;;6.00;97.50;;;;;;5087712;28;19939;-77
2022/11/28 12:30:25;;;;;;;;;;;6.00;97.50;;;;;;5078228;28;19974;-78
2022/11/28 12:32:59;;;;;;;;;;;6.00;97.40;;;;;;5075703;28;19982;-77
2022/11/28 12:35:32;;;;;;;;;;;6.00;97.40;;;;;;5076257;28;19943;-79
2022/11/28 12:38:06;;;;;;;;;;;6.10;97.40;;;;;;5078534;28;20351;-78
2022/11/28 12:40:35;;;;;;;;;;;6.10;97.40;;;;;;5084446;28;19928;-78
2022/11/28 12:43:08;;;;;;;;;;;6.10;97.20;;;;;;5071131;28;19928;-78
2022/11/28 12:45:40;;;;;;;;;;;6.10;97.40;;;;;;5064930;28;19935;-78
2022/11/28 12:48:16;;;;;;;;;;;6.20;97.50;;;;;;5070459;28;19939;-79
2022/11/28 12:50:45;;;;;;;;;;;6.20;97.50;;;;;;5069554;28;20019;-78
2022/11/28 12:53:24;;;;;;;;;;;6.20;97.50;;;;;;5069841;28;20379;-77
2022/11/28 12:55:55;;;;;;;;;;;6.20;97.40;;;;;;5066752;28;19932;-78
2022/11/28 12:58:22;;;;;;;;;;;6.30;97.50;;;;;;5075302;28;19935;-78
2022/11/28 13:00:52;;;;;;;;;;;6.20;97.50;;;;;;5076639;28;20487;-78
2022/11/28 13:03:29;;;;;;;;;;;6.30;97.20;;;;;;5079059;28;19935;-78
2022/11/28 13:05:59;;;;;;;;;;;6.30;97.50;;;;;;5082227;28;19935;-78
2022/11/28 13:08:31;;;;;;;;;;;6.30;97.50;;;;;;5067608;28;19928;-78
2022/11/28 13:11:02;;;;;;;;;;;6.30;97.50;;;;;;5077650;28;20284;-78
2022/11/28 13:13:32;;;;;;;;;;;6.30;97.50;;;;;;5072490;28;19929;-78
2022/11/28 13:16:03;;;;;;;;;;;6.30;97.50;;;;;;5079876;28;19939;-78
2022/11/28 13:18:37;;;;;;;;;;;7.20;97.80;;;;;;5075623;28;19928;-77
2022/11/28 13:21:10;;;;;;;;;;;6.40;97.60;;;;;;5078662;28;19928;-78
2022/11/28 13:23:41;;;;;;;;;;;6.40;97.60;;;;;;5076398;28;19936;-78
2022/11/28 13:26:09;;;;;;;;;;;6.40;97.60;;;;;;5070643;28;19928;-78
2022/11/28 13:28:38;;;;;;;;;;;6.40;97.60;;;;;;5083116;28;19928;-80
2022/11/28 13:31:07;;;;;;;;;;;7.40;97.90;;;;;;5094938;28;20018;-78
2022/11/28 13:33:43;;;;;;;;;;;6.40;97.30;;;;;;5090991;28;20395;-78
2022/11/28 13:36:16;;;;;;;;;;;6.50;97.60;;;;;;5096409;28;19927;-79
2022/11/28 13:38:48;;;;;;;;;;;6.50;97.70;;;;;;5092648;28;21277;-77
2022/11/28 13:41:17;;;;;;;;;;;6.50;97.40;;;;;;5103819;27;19939;-79
2022/11/28 13:43:49;;;;;;;;;;;6.50;97.70;;;;;;5094230;28;20303;-78
2022/11/28 13:46:15;;;;;;;;;;;6.60;97.70;;;;;;5092061;28;19928;-78
2022/11/28 13:48:57;;;;;;;;;;;6.60;97.70;;;;;;5096338;28;19928;-78
2022/11/28 13:51:25;;;;;;;;;;;6.60;97.50;;;;;;5099096;27;19927;-78
2022/11/28 13:54:20;;;;;;;;;;;6.60;97.70;;;;;;5092441;28;19936;-78
2022/11/28 13:56:48;;;;;;;;;;;6.60;97.90;;;;;;5093736;28;19928;-78
2022/11/28 13:59:16;;;;;;;;;;;6.60;97.70;;;;;;5104478;27;19928;-77
2022/11/28 14:01:44;;;;;;;;;;;6.60;97.50;;;;;;5097582;28;19928;-78
2022/11/28 14:04:13;;;;;;;;;;;6.70;97.80;;;;;;5099563;27;19928;-77
2022/11/28 14:06:42;;;;;;;;;;;6.70;97.80;;;;;;5095658;28;19928;-78
2022/11/28 14:09:18;;;;;;;;;;;6.70;97.70;;;;;;5097912;28;19928;-78
2022/11/28 14:11:52;;;;;;;;;;;6.70;97.50;;;;;;5093594;28;19963;-78
2022/11/28 14:14:32;;;;;;;;;;;6.70;97.70;;;;;;5098271;28;20177;-78
2022/11/28 14:17:08;;;;;;;;;;;6.70;97.70;;;;;;5093409;28;19968;-78
2022/11/28 14:19:42;;;;;;;;;;;6.70;97.80;;;;;;5093471;28;20052;-77
2022/11/28 14:22:25;;;;;;;;;;;6.70;97.80;;;;;;5097718;28;21371;-78
2022/11/28 14:24:55;;;;;;;;;;;6.70;97.80;;;;;;5096185;28;19955;-77
2022/11/28 14:27:23;;;;;;;;;;;6.70;97.80;;;;;;5092148;28;19932;-78
2022/11/28 14:29:51;;;;;;;;;;;6.80;97.80;;;;;;5084614;28;19929;-78
2022/11/28 14:32:24;;;;;;;;;;;6.80;97.50;;;;;;5075034;28;20027;-78
2022/11/28 14:34:52;;;;;;;;;;;6.80;97.80;;;;;;5081583;28;19928;-78
2022/11/28 14:37:36;;;;;;;;;;;6.80;97.80;;;;;;5075414;28;19939;-78
2022/11/28 14:40:03;;;;;;;;;;;6.80;97.80;;;;;;5077870;28;19932;-78
2022/11/28 14:42:38;;;;;;;;;;;6.80;97.50;;;;;;5087707;28;19928;-78
2022/11/28 14:45:20;;;;;;;;;;;6.90;97.80;;;;;;5077846;28;19928;-78